Terminal Aerodrome Forecast
Issued by NWS

Home | Current Version | Previous Version | Text Only | Print | Product List | Glossary On
Versions: 1 2 3 4 5 6 7 8 9 10 11 12 13
548
FTUS42 TJSJ 130539
TAFJMZ
TAF
TJMZ 130539Z 1306/1406 00000KT P6SM FEW070
     FM131530 26009KT P6SM VCSH FEW025 SCT040
     FM132200 09006KT P6SM FEW040
      AMD NOT SKED=

USA.gov is the U.S. government's official web portal to all federal, state and local government web resources and services.